createdAt,value
2022-08-28T00:03:09.568Z,22.35
2022-08-28T00:08:15.087Z,22.54
2022-08-28T00:13:22.116Z,22.60
2022-08-28T00:18:26.603Z,22.56
2022-08-28T00:23:42.460Z,22.52
2022-08-28T00:28:45.883Z,22.47
2022-08-28T00:33:50.964Z,22.44
2022-08-28T00:38:53.759Z,22.45
2022-08-28T00:44:28.200Z,22.41
2022-08-28T00:49:36.088Z,22.39
2022-08-28T00:55:06.077Z,22.34
2022-08-28T01:00:16.598Z,22.30
2022-08-28T01:05:20.530Z,22.26
2022-08-28T01:10:26.683Z,22.20
2022-08-28T01:15:33.807Z,22.12
2022-08-28T01:20:42.853Z,22.05
2022-08-28T01:25:45.836Z,22.00
2022-08-28T01:30:49.613Z,21.92
2022-08-28T01:35:53.959Z,21.85
2022-08-28T01:40:58.248Z,21.82
2022-08-28T01:46:05.906Z,21.78
2022-08-28T01:51:10.703Z,21.75
2022-08-28T01:56:16.212Z,21.68
2022-08-28T02:01:21.925Z,21.64
2022-08-28T02:06:25.816Z,21.60
2022-08-28T02:11:32.950Z,21.56
2022-08-28T02:16:35.951Z,21.48
2022-08-28T02:21:38.938Z,21.34
2022-08-28T02:26:41.732Z,21.24
2022-08-28T02:31:44.484Z,21.17
2022-08-28T02:36:47.968Z,21.09
2022-08-28T02:41:50.995Z,21.05
2022-08-28T02:46:54.039Z,21.02
2022-08-28T02:51:58.930Z,20.95
2022-08-28T02:57:01.922Z,20.91
2022-08-28T03:02:07.321Z,20.88
2022-08-28T03:07:13.686Z,20.83
2022-08-28T03:12:17.173Z,20.77
2022-08-28T03:17:22.169Z,20.75
2022-08-28T03:22:43.731Z,20.77
2022-08-28T03:27:46.788Z,20.80
2022-08-28T03:32:50.462Z,20.73
2022-08-28T03:37:54.026Z,20.60
2022-08-28T03:42:57.105Z,20.47
2022-08-28T03:47:59.996Z,20.39
2022-08-28T03:53:02.968Z,20.30
2022-08-28T03:58:05.913Z,20.26
2022-08-28T04:03:09.358Z,20.27
2022-08-28T04:08:16.098Z,20.29
2022-08-28T04:13:21.057Z,20.34
2022-08-28T04:18:24.113Z,20.32
2022-08-28T04:23:28.734Z,20.30
2022-08-28T04:28:32.735Z,20.28
2022-08-28T04:33:37.045Z,20.21
2022-08-28T04:38:43.913Z,20.20
2022-08-28T04:43:47.666Z,20.19
2022-08-28T04:48:50.639Z,20.15
2022-08-28T04:53:53.677Z,20.19
2022-08-28T04:58:56.717Z,20.21
2022-08-28T05:04:04.034Z,20.26
2022-08-28T05:09:07.051Z,20.40
2022-08-28T05:14:15.230Z,20.56
2022-08-28T05:19:21.066Z,20.73
2022-08-28T05:24:23.933Z,20.87
2022-08-28T05:29:26.769Z,21.06
2022-08-28T05:34:29.659Z,21.27
2022-08-28T05:39:33.022Z,21.41
2022-08-28T05:44:35.971Z,21.55
2022-08-28T05:49:39.068Z,21.69
2022-08-28T05:54:43.198Z,21.84
2022-08-28T05:59:46.102Z,22.00
2022-08-28T06:04:49.820Z,22.18
2022-08-28T06:09:52.620Z,22.37
2022-08-28T06:14:55.514Z,22.57
2022-08-28T06:19:59.752Z,22.75
2022-08-28T06:25:06.377Z,22.90
2022-08-28T06:30:11.746Z,23.04
2022-08-28T06:35:16.076Z,23.07
2022-08-28T06:40:18.931Z,23.07
2022-08-28T06:45:21.753Z,23.09
2022-08-28T06:50:24.646Z,23.10
2022-08-28T06:55:27.480Z,23.19
2022-08-28T07:00:33.532Z,23.35
2022-08-28T07:05:36.312Z,23.47
2022-08-28T07:10:39.082Z,23.50
2022-08-28T07:15:42.122Z,23.50
2022-08-28T07:20:45.996Z,23.47
2022-08-28T07:25:48.840Z,23.42
2022-08-28T07:31:22.255Z,23.48
2022-08-28T07:36:29.432Z,23.57
2022-08-28T07:41:39.290Z,23.71
2022-08-28T07:46:42.550Z,24.01
2022-08-28T07:51:46.729Z,24.69
2022-08-28T07:56:50.265Z,25.22
2022-08-28T08:01:53.422Z,25.41
2022-08-28T08:06:58.239Z,25.48
2022-08-28T08:12:01.241Z,25.61
2022-08-28T08:17:07.337Z,25.78
2022-08-28T08:22:10.435Z,25.93
2022-08-28T08:27:13.448Z,26.09
2022-08-28T08:32:16.418Z,26.18
2022-08-28T08:37:19.527Z,26.17
2022-08-28T08:42:30.519Z,26.10
2022-08-28T08:48:00.538Z,26.10
2022-08-28T08:53:18.509Z,26.11
2022-08-28T08:58:41.278Z,26.07
2022-08-28T09:04:22.713Z,26.21
2022-08-28T09:09:37.263Z,26.39
2022-08-28T09:14:58.531Z,26.54
2022-08-28T09:20:01.534Z,26.62
2022-08-28T09:25:05.929Z,26.78
2022-08-28T09:30:12.034Z,26.93
2022-08-28T09:35:29.273Z,27.19
2022-08-28T09:40:51.449Z,27.41
2022-08-28T09:46:31.056Z,27.53
2022-08-28T09:51:38.821Z,27.68
2022-08-28T09:56:44.812Z,27.84
2022-08-28T10:02:11.575Z,28.11
2022-08-28T10:07:32.370Z,28.29
2022-08-28T10:13:09.643Z,28.56
2022-08-28T10:18:30.666Z,28.69
2022-08-28T10:24:24.727Z,28.83
2022-08-28T10:29:48.192Z,29.02
2022-08-28T10:35:14.035Z,29.30
2022-08-28T10:40:42.163Z,29.62
2022-08-28T10:45:45.635Z,29.85
2022-08-28T10:50:56.156Z,30.10
2022-08-28T10:56:07.444Z,30.18
2022-08-28T11:01:28.608Z,30.30
2022-08-28T11:06:48.118Z,30.35
2022-08-28T11:12:02.504Z,30.55
2022-08-28T11:17:37.660Z,30.58
2022-08-28T11:22:53.124Z,30.24
2022-08-28T11:28:39.098Z,30.06
2022-08-28T11:33:52.553Z,30.22
2022-08-28T11:38:55.848Z,30.50
2022-08-28T11:44:11.211Z,30.65
2022-08-28T11:49:29.942Z,30.82
2022-08-28T11:55:15.820Z,30.90
2022-08-28T12:00:51.280Z,30.86
2022-08-28T12:05:58.045Z,30.58
2022-08-28T12:11:02.034Z,30.23
2022-08-28T12:16:07.678Z,29.95
2022-08-28T12:21:25.944Z,29.86
2022-08-28T12:26:47.751Z,29.82
2022-08-28T12:32:13.640Z,29.91
2022-08-28T12:37:31.292Z,30.16
2022-08-28T12:43:04.932Z,30.34
2022-08-28T12:48:24.198Z,30.42
2022-08-28T12:53:27.146Z,30.48
2022-08-28T12:58:39.526Z,30.55
2022-08-28T13:04:12.049Z,30.72
2022-08-28T13:09:22.555Z,30.80
2022-08-28T13:14:46.228Z,30.77
2022-08-28T13:20:07.466Z,30.63
2022-08-28T13:25:31.109Z,30.49
2022-08-28T13:30:36.584Z,30.35
2022-08-28T13:35:42.018Z,30.31
2022-08-28T13:41:02.677Z,30.25
2022-08-28T13:46:05.696Z,29.97
2022-08-28T13:51:20.809Z,29.70
2022-08-28T13:56:24.511Z,29.39
2022-08-28T14:01:47.634Z,29.35
2022-08-28T14:06:50.775Z,29.53
2022-08-28T14:11:55.860Z,29.61
2022-08-28T14:16:59.682Z,29.76
2022-08-28T14:22:04.163Z,29.86
2022-08-28T14:27:07.126Z,29.91
2022-08-28T14:32:10.105Z,29.91
2022-08-28T14:37:13.957Z,29.74
2022-08-28T14:42:19.409Z,29.68
2022-08-28T14:47:22.517Z,29.80
2022-08-28T14:52:26.464Z,29.95
2022-08-28T14:57:29.411Z,30.05
2022-08-28T15:02:32.084Z,30.07
2022-08-28T15:07:35.137Z,30.10
2022-08-28T15:12:40.275Z,30.13
2022-08-28T15:17:45.490Z,30.09
2022-08-28T15:22:48.507Z,30.05
2022-08-28T15:27:51.668Z,29.94
2022-08-28T15:32:54.552Z,29.93
2022-08-28T15:37:57.517Z,29.82
2022-08-28T15:43:00.581Z,29.75
2022-08-28T15:48:03.976Z,29.56
2022-08-28T15:53:07.788Z,29.30
2022-08-28T15:58:14.344Z,29.16
2022-08-28T16:03:17.511Z,29.02
2022-08-28T16:08:20.760Z,28.86
2022-08-28T16:13:23.764Z,28.63
2022-08-28T16:18:26.667Z,28.39
2022-08-28T16:23:29.420Z,28.13
2022-08-28T16:28:33.398Z,27.84
2022-08-28T16:33:37.595Z,27.54
2022-08-28T16:38:46.573Z,27.32
2022-08-28T16:43:50.719Z,27.16
2022-08-28T16:48:54.685Z,26.95
2022-08-28T16:53:58.541Z,26.77
2022-08-28T16:59:01.413Z,26.60
2022-08-28T17:04:04.292Z,26.42
2022-08-28T17:09:07.333Z,26.28
2022-08-28T17:14:12.156Z,26.12
2022-08-28T17:19:15.827Z,25.97
2022-08-28T17:24:18.893Z,25.81
2022-08-28T17:29:21.869Z,25.65
2022-08-28T17:34:29.952Z,25.52
2022-08-28T17:39:33.132Z,25.38
2022-08-28T17:44:36.606Z,25.26
2022-08-28T17:49:40.633Z,25.12
2022-08-28T17:54:45.778Z,24.99
2022-08-28T17:59:49.063Z,24.88
2022-08-28T18:04:53.970Z,24.76
2022-08-28T18:09:56.986Z,24.70
2022-08-28T18:14:59.758Z,24.65
2022-08-28T18:20:05.576Z,24.61
2022-08-28T18:25:09.316Z,24.58
2022-08-28T18:30:12.616Z,24.53
2022-08-28T18:35:15.574Z,24.45
2022-08-28T18:40:18.835Z,24.41
2022-08-28T18:45:21.663Z,24.33
2022-08-28T18:50:26.907Z,24.32
2022-08-28T18:55:32.280Z,24.36
2022-08-28T19:00:35.154Z,24.39
2022-08-28T19:05:39.539Z,24.39
2022-08-28T19:10:42.513Z,24.41
2022-08-28T19:15:52.817Z,24.43
2022-08-28T19:21:08.987Z,24.44
2022-08-28T19:26:13.222Z,24.40
2022-08-28T19:31:17.576Z,24.36
2022-08-28T19:36:22.111Z,24.29
2022-08-28T19:41:26.390Z,24.21
2022-08-28T19:46:29.918Z,24.11
2022-08-28T19:51:35.345Z,23.97
2022-08-28T19:56:39.979Z,23.86
2022-08-28T20:01:45.085Z,23.71
2022-08-28T20:06:48.199Z,23.60
2022-08-28T20:11:52.625Z,23.47
2022-08-28T20:16:55.694Z,23.38
2022-08-28T20:21:58.538Z,23.29
2022-08-28T20:27:01.366Z,23.19
2022-08-28T20:32:04.368Z,23.13
2022-08-28T20:37:07.299Z,23.05
2022-08-28T20:42:12.085Z,23.00
2022-08-28T20:47:15.196Z,22.98
2022-08-28T20:52:18.345Z,22.89
2022-08-28T20:57:22.901Z,22.85
2022-08-28T21:02:29.157Z,22.79
2022-08-28T21:07:34.182Z,22.73
2022-08-28T21:12:39.131Z,22.66
2022-08-28T21:17:42.577Z,22.57
2022-08-28T21:22:45.745Z,22.52
2022-08-28T21:27:50.584Z,22.47
2022-08-28T21:32:53.797Z,22.42
2022-08-28T21:37:56.626Z,22.35
2022-08-28T21:42:59.579Z,22.36
2022-08-28T21:48:03.321Z,22.37
2022-08-28T21:53:06.253Z,22.33
2022-08-28T21:58:09.718Z,22.24
2022-08-28T22:03:16.312Z,22.16
2022-08-28T22:08:21.567Z,22.09
2022-08-28T22:13:24.737Z,22.01
2022-08-28T22:18:34.040Z,21.94
2022-08-28T22:23:37.993Z,21.83
2022-08-28T22:28:41.216Z,21.78
2022-08-28T22:33:44.841Z,21.71
2022-08-28T22:38:53.193Z,21.62
2022-08-28T22:43:56.436Z,21.61
2022-08-28T22:48:59.536Z,21.56
2022-08-28T22:54:02.706Z,21.55
2022-08-28T22:59:05.665Z,21.52
2022-08-28T23:04:10.619Z,21.46
2022-08-28T23:09:13.655Z,21.42
2022-08-28T23:14:16.697Z,21.42
2022-08-28T23:19:19.540Z,21.42
2022-08-28T23:24:22.430Z,21.38
2022-08-28T23:29:25.416Z,21.30
2022-08-28T23:34:28.255Z,21.27
2022-08-28T23:39:31.090Z,21.23
2022-08-28T23:44:33.962Z,21.22
2022-08-28T23:49:42.758Z,21.20
2022-08-28T23:54:45.909Z,21.15
2022-08-28T23:59:49.576Z,21.09
